sensor_id;sensor_type;location;lat;lon;timestamp;temperature;humidity
3001;DHT22;1510;51.072;6.678;2023-04-26T00:01:31;1.40;99.90
3001;DHT22;1510;51.072;6.678;2023-04-26T00:03:59;1.40;99.90
3001;DHT22;1510;51.072;6.678;2023-04-26T00:06:27;1.40;99.90
3001;DHT22;1510;51.072;6.678;2023-04-26T00:08:54;1.40;99.90
3001;DHT22;1510;51.072;6.678;2023-04-26T00:11:22;1.40;99.90
3001;DHT22;1510;51.072;6.678;2023-04-26T00:13:49;1.30;99.90
3001;DHT22;1510;51.072;6.678;2023-04-26T00:16:16;1.30;99.90
3001;DHT22;1510;51.072;6.678;2023-04-26T00:18:44;1.30;99.90
3001;DHT22;1510;51.072;6.678;2023-04-26T00:21:12;1.20;99.90
3001;DHT22;1510;51.072;6.678;2023-04-26T00:23:40;1.30;99.90
3001;DHT22;1510;51.072;6.678;2023-04-26T00:26:07;1.40;99.90
3001;DHT22;1510;51.072;6.678;2023-04-26T00:28:36;1.40;99.90
3001;DHT22;1510;51.072;6.678;2023-04-26T00:31:02;1.40;99.90
3001;DHT22;1510;51.072;6.678;2023-04-26T00:33:29;1.40;99.90
3001;DHT22;1510;51.072;6.678;2023-04-26T00:35:56;1.30;99.90
3001;DHT22;1510;51.072;6.678;2023-04-26T00:38:23;1.20;99.90
3001;DHT22;1510;51.072;6.678;2023-04-26T00:40:50;1.10;99.90
3001;DHT22;1510;51.072;6.678;2023-04-26T00:43:16;1.10;99.90
3001;DHT22;1510;51.072;6.678;2023-04-26T00:45:45;1.10;99.90
3001;DHT22;1510;51.072;6.678;2023-04-26T00:48:12;1.10;99.90
3001;DHT22;1510;51.072;6.678;2023-04-26T00:50:39;1.20;99.90
3001;DHT22;1510;51.072;6.678;2023-04-26T00:53:07;1.20;99.90
3001;DHT22;1510;51.072;6.678;2023-04-26T00:55:34;1.20;99.90
3001;DHT22;1510;51.072;6.678;2023-04-26T00:58:01;1.20;99.90
3001;DHT22;1510;51.072;6.678;2023-04-26T01:00:28;1.20;99.90
3001;DHT22;1510;51.072;6.678;2023-04-26T01:02:56;1.20;99.90
3001;DHT22;1510;51.072;6.678;2023-04-26T01:05:23;1.30;99.90
3001;DHT22;1510;51.072;6.678;2023-04-26T01:07:53;1.30;99.90
3001;DHT22;1510;51.072;6.678;2023-04-26T01:10:20;1.30;99.90
3001;DHT22;1510;51.072;6.678;2023-04-26T01:12:46;1.30;99.90
3001;DHT22;1510;51.072;6.678;2023-04-26T01:15:14;1.20;99.90
3001;DHT22;1510;51.072;6.678;2023-04-26T01:17:41;1.10;99.90
3001;DHT22;1510;51.072;6.678;2023-04-26T01:20:12;1.00;99.90
3001;DHT22;1510;51.072;6.678;2023-04-26T01:22:41;1.00;99.90
3001;DHT22;1510;51.072;6.678;2023-04-26T01:25:10;1.10;99.90
3001;DHT22;1510;51.072;6.678;2023-04-26T01:27:37;1.00;99.90
3001;DHT22;1510;51.072;6.678;2023-04-26T01:30:05;1.00;99.90
3001;DHT22;1510;51.072;6.678;2023-04-26T01:32:32;0.90;99.90
3001;DHT22;1510;51.072;6.678;2023-04-26T01:35:00;0.90;99.90
3001;DHT22;1510;51.072;6.678;2023-04-26T01:37:26;0.80;99.90
3001;DHT22;1510;51.072;6.678;2023-04-26T01:39:55;0.70;99.90
3001;DHT22;1510;51.072;6.678;2023-04-26T01:42:21;0.60;99.90
3001;DHT22;1510;51.072;6.678;2023-04-26T01:44:48;0.50;99.90
3001;DHT22;1510;51.072;6.678;2023-04-26T01:47:16;0.40;99.90
3001;DHT22;1510;51.072;6.678;2023-04-26T01:49:43;0.30;99.90
3001;DHT22;1510;51.072;6.678;2023-04-26T01:52:10;0.20;99.90
3001;DHT22;1510;51.072;6.678;2023-04-26T01:54:36;0.20;99.90
3001;DHT22;1510;51.072;6.678;2023-04-26T01:57:05;0.30;99.90
3001;DHT22;1510;51.072;6.678;2023-04-26T01:59:34;0.30;99.90
3001;DHT22;1510;51.072;6.678;2023-04-26T02:02:01;0.30;99.90
3001;DHT22;1510;51.072;6.678;2023-04-26T02:04:27;0.30;99.90
3001;DHT22;1510;51.072;6.678;2023-04-26T02:06:54;0.20;99.90
3001;DHT22;1510;51.072;6.678;2023-04-26T02:09:21;0.10;99.90
3001;DHT22;1510;51.072;6.678;2023-04-26T02:11:48;0.10;99.90
3001;DHT22;1510;51.072;6.678;2023-04-26T02:14:16;0.00;99.90
3001;DHT22;1510;51.072;6.678;2023-04-26T02:16:45;0.10;99.90
3001;DHT22;1510;51.072;6.678;2023-04-26T02:19:12;0.00;99.90
3001;DHT22;1510;51.072;6.678;2023-04-26T02:21:50;0.10;99.90
3001;DHT22;1510;51.072;6.678;2023-04-26T02:24:21;0.10;99.90
3001;DHT22;1510;51.072;6.678;2023-04-26T02:26:48;0.00;99.90
3001;DHT22;1510;51.072;6.678;2023-04-26T02:29:16;0.00;99.90
3001;DHT22;1510;51.072;6.678;2023-04-26T02:31:45;-0.10;99.90
3001;DHT22;1510;51.072;6.678;2023-04-26T02:34:13;0.00;99.90
3001;DHT22;1510;51.072;6.678;2023-04-26T02:36:41;-0.10;99.90
3001;DHT22;1510;51.072;6.678;2023-04-26T02:39:07;-0.10;99.90
3001;DHT22;1510;51.072;6.678;2023-04-26T02:41:35;-0.10;99.90
3001;DHT22;1510;51.072;6.678;2023-04-26T02:44:01;-0.20;99.90
3001;DHT22;1510;51.072;6.678;2023-04-26T02:46:29;-0.20;99.90
3001;DHT22;1510;51.072;6.678;2023-04-26T02:48:57;-0.20;99.90
3001;DHT22;1510;51.072;6.678;2023-04-26T02:51:23;-0.20;99.90
3001;DHT22;1510;51.072;6.678;2023-04-26T02:53:51;-0.10;99.90
3001;DHT22;1510;51.072;6.678;2023-04-26T02:56:18;-0.10;99.90
3001;DHT22;1510;51.072;6.678;2023-04-26T02:58:47;-0.10;99.90
3001;DHT22;1510;51.072;6.678;2023-04-26T03:01:14;-0.20;99.90
3001;DHT22;1510;51.072;6.678;2023-04-26T03:03:43;-0.20;99.90
3001;DHT22;1510;51.072;6.678;2023-04-26T03:06:11;-0.20;99.90
3001;DHT22;1510;51.072;6.678;2023-04-26T03:08:38;-0.30;99.90
3001;DHT22;1510;51.072;6.678;2023-04-26T03:11:05;-0.40;99.90
3001;DHT22;1510;51.072;6.678;2023-04-26T03:13:32;-0.50;99.90
3001;DHT22;1510;51.072;6.678;2023-04-26T03:15:59;-0.50;99.90
3001;DHT22;1510;51.072;6.678;2023-04-26T03:18:26;-0.70;99.90
3001;DHT22;1510;51.072;6.678;2023-04-26T03:20:54;-0.70;99.90
3001;DHT22;1510;51.072;6.678;2023-04-26T03:23:21;-0.70;99.90
3001;DHT22;1510;51.072;6.678;2023-04-26T03:25:48;-0.80;99.90
3001;DHT22;1510;51.072;6.678;2023-04-26T03:28:16;-0.70;99.90
3001;DHT22;1510;51.072;6.678;2023-04-26T03:30:43;-0.80;99.90
3001;DHT22;1510;51.072;6.678;2023-04-26T03:33:09;-0.80;99.90
3001;DHT22;1510;51.072;6.678;2023-04-26T03:35:36;-0.90;99.90
3001;DHT22;1510;51.072;6.678;2023-04-26T03:38:04;-0.90;99.90
3001;DHT22;1510;51.072;6.678;2023-04-26T03:40:31;-0.90;99.90
3001;DHT22;1510;51.072;6.678;2023-04-26T03:42:58;-0.80;99.90
3001;DHT22;1510;51.072;6.678;2023-04-26T03:45:26;-0.80;99.90
3001;DHT22;1510;51.072;6.678;2023-04-26T03:47:52;-0.90;99.90
3001;DHT22;1510;51.072;6.678;2023-04-26T03:50:19;-0.90;99.90
3001;DHT22;1510;51.072;6.678;2023-04-26T03:52:48;-0.90;99.90
3001;DHT22;1510;51.072;6.678;2023-04-26T03:55:17;-1.00;99.90
3001;DHT22;1510;51.072;6.678;2023-04-26T03:57:44;-1.00;99.90
3001;DHT22;1510;51.072;6.678;2023-04-26T04:00:12;-1.00;99.90
3001;DHT22;1510;51.072;6.678;2023-04-26T04:02:40;-1.00;99.90
3001;DHT22;1510;51.072;6.678;2023-04-26T04:05:07;-1.00;99.90
3001;DHT22;1510;51.072;6.678;2023-04-26T04:07:34;-0.80;99.90
3001;DHT22;1510;51.072;6.678;2023-04-26T04:10:01;-0.90;99.90
3001;DHT22;1510;51.072;6.678;2023-04-26T04:12:29;-0.90;99.90
3001;DHT22;1510;51.072;6.678;2023-04-26T04:14:56;-0.90;99.90
3001;DHT22;1510;51.072;6.678;2023-04-26T04:17:23;-0.90;99.90
3001;DHT22;1510;51.072;6.678;2023-04-26T04:19:50;-1.00;99.90
3001;DHT22;1510;51.072;6.678;2023-04-26T04:22:17;-1.00;99.90
3001;DHT22;1510;51.072;6.678;2023-04-26T04:24:44;-0.90;99.90
3001;DHT22;1510;51.072;6.678;2023-04-26T04:27:11;-0.90;99.90
3001;DHT22;1510;51.072;6.678;2023-04-26T04:29:40;-0.90;99.90
3001;DHT22;1510;51.072;6.678;2023-04-26T04:32:07;-0.90;99.90
3001;DHT22;1510;51.072;6.678;2023-04-26T04:34:34;-0.90;99.90
3001;DHT22;1510;51.072;6.678;2023-04-26T04:37:01;-0.90;99.90
3001;DHT22;1510;51.072;6.678;2023-04-26T04:39:29;-0.90;99.90
3001;DHT22;1510;51.072;6.678;2023-04-26T04:41:56;-0.90;99.90
3001;DHT22;1510;51.072;6.678;2023-04-26T04:44:25;-0.80;99.90
3001;DHT22;1510;51.072;6.678;2023-04-26T04:46:53;-0.70;99.90
3001;DHT22;1510;51.072;6.678;2023-04-26T04:49:22;-0.60;99.90
3001;DHT22;1510;51.072;6.678;2023-04-26T04:51:49;-0.50;99.90
3001;DHT22;1510;51.072;6.678;2023-04-26T04:54:17;-0.40;99.90
3001;DHT22;1510;51.072;6.678;2023-04-26T04:56:44;-0.30;99.90
3001;DHT22;1510;51.072;6.678;2023-04-26T04:59:11;-0.30;99.90
3001;DHT22;1510;51.072;6.678;2023-04-26T05:01:38;-0.20;99.90
3001;DHT22;1510;51.072;6.678;2023-04-26T05:04:06;-0.10;99.90
3001;DHT22;1510;51.072;6.678;2023-04-26T05:06:33;0.00;99.90
3001;DHT22;1510;51.072;6.678;2023-04-26T05:09:00;0.10;99.90
3001;DHT22;1510;51.072;6.678;2023-04-26T05:11:29;0.20;99.90
3001;DHT22;1510;51.072;6.678;2023-04-26T05:13:55;0.30;99.90
3001;DHT22;1510;51.072;6.678;2023-04-26T05:16:22;0.50;99.90
3001;DHT22;1510;51.072;6.678;2023-04-26T05:18:50;0.70;99.90
3001;DHT22;1510;51.072;6.678;2023-04-26T05:21:21;0.90;99.90
3001;DHT22;1510;51.072;6.678;2023-04-26T05:23:48;1.10;99.90
3001;DHT22;1510;51.072;6.678;2023-04-26T05:26:17;1.50;99.90
3001;DHT22;1510;51.072;6.678;2023-04-26T05:28:43;1.80;99.90
3001;DHT22;1510;51.072;6.678;2023-04-26T05:31:10;2.30;99.90
3001;DHT22;1510;51.072;6.678;2023-04-26T05:33:38;2.70;99.90
3001;DHT22;1510;51.072;6.678;2023-04-26T05:36:08;3.10;99.90
3001;DHT22;1510;51.072;6.678;2023-04-26T05:38:36;3.40;99.90
3001;DHT22;1510;51.072;6.678;2023-04-26T05:41:03;3.80;99.90
3001;DHT22;1510;51.072;6.678;2023-04-26T05:43:31;4.20;99.90
3001;DHT22;1510;51.072;6.678;2023-04-26T05:45:58;4.50;99.90
3001;DHT22;1510;51.072;6.678;2023-04-26T05:48:25;4.70;99.90
3001;DHT22;1510;51.072;6.678;2023-04-26T05:50:52;5.00;99.90
3001;DHT22;1510;51.072;6.678;2023-04-26T05:53:19;5.30;99.90
3001;DHT22;1510;51.072;6.678;2023-04-26T05:55:47;5.60;99.90
3001;DHT22;1510;51.072;6.678;2023-04-26T05:58:14;5.70;99.90
3001;DHT22;1510;51.072;6.678;2023-04-26T06:00:41;5.90;99.90
3001;DHT22;1510;51.072;6.678;2023-04-26T06:03:08;6.10;99.90
3001;DHT22;1510;51.072;6.678;2023-04-26T06:05:35;6.30;99.90
3001;DHT22;1510;51.072;6.678;2023-04-26T06:08:04;6.40;99.90
3001;DHT22;1510;51.072;6.678;2023-04-26T06:10:31;6.50;99.90
3001;DHT22;1510;51.072;6.678;2023-04-26T06:13:00;6.50;99.90
3001;DHT22;1510;51.072;6.678;2023-04-26T06:15:27;6.50;99.90
3001;DHT22;1510;51.072;6.678;2023-04-26T06:17:53;6.50;99.90
3001;DHT22;1510;51.072;6.678;2023-04-26T06:20:21;6.50;99.90
3001;DHT22;1510;51.072;6.678;2023-04-26T06:22:47;6.70;99.90
3001;DHT22;1510;51.072;6.678;2023-04-26T06:25:14;6.80;99.90
3001;DHT22;1510;51.072;6.678;2023-04-26T06:27:41;6.70;99.90
3001;DHT22;1510;51.072;6.678;2023-04-26T06:30:10;6.60;99.90
3001;DHT22;1510;51.072;6.678;2023-04-26T06:32:37;6.70;99.90
3001;DHT22;1510;51.072;6.678;2023-04-26T06:35:05;6.50;99.90
3001;DHT22;1510;51.072;6.678;2023-04-26T06:37:32;6.50;99.90
3001;DHT22;1510;51.072;6.678;2023-04-26T06:39:59;6.50;99.90
3001;DHT22;1510;51.072;6.678;2023-04-26T06:42:27;6.60;99.90
3001;DHT22;1510;51.072;6.678;2023-04-26T06:44:54;6.80;99.90
3001;DHT22;1510;51.072;6.678;2023-04-26T06:47:32;7.10;99.90
3001;DHT22;1510;51.072;6.678;2023-04-26T06:49:59;7.30;99.90
3001;DHT22;1510;51.072;6.678;2023-04-26T06:52:26;7.50;99.90
3001;DHT22;1510;51.072;6.678;2023-04-26T06:54:54;7.70;99.90
3001;DHT22;1510;51.072;6.678;2023-04-26T06:57:21;7.90;99.90
3001;DHT22;1510;51.072;6.678;2023-04-26T06:59:49;8.00;99.90
3001;DHT22;1510;51.072;6.678;2023-04-26T07:02:17;8.00;99.90
3001;DHT22;1510;51.072;6.678;2023-04-26T07:04:45;8.00;99.00
3001;DHT22;1510;51.072;6.678;2023-04-26T07:07:12;8.20;99.20
3001;DHT22;1510;51.072;6.678;2023-04-26T07:09:41;8.20;97.40
3001;DHT22;1510;51.072;6.678;2023-04-26T07:12:10;8.10;97.30
3001;DHT22;1510;51.072;6.678;2023-04-26T07:14:37;8.20;97.40
3001;DHT22;1510;51.072;6.678;2023-04-26T07:17:05;8.40;97.50
3001;DHT22;1510;51.072;6.678;2023-04-26T07:19:32;8.50;95.60
3001;DHT22;1510;51.072;6.678;2023-04-26T07:22:00;8.60;97.00
3001;DHT22;1510;51.072;6.678;2023-04-26T07:24:28;8.80;93.00
3001;DHT22;1510;51.072;6.678;2023-04-26T07:26:55;8.70;93.20
3001;DHT22;1510;51.072;6.678;2023-04-26T07:29:22;8.70;93.00
3001;DHT22;1510;51.072;6.678;2023-04-26T07:31:49;8.90;94.30
3001;DHT22;1510;51.072;6.678;2023-04-26T07:34:17;9.00;91.00
3001;DHT22;1510;51.072;6.678;2023-04-26T07:36:46;8.80;90.90
3001;DHT22;1510;51.072;6.678;2023-04-26T07:39:15;9.10;91.10
3001;DHT22;1510;51.072;6.678;2023-04-26T07:41:42;9.20;86.30
3001;DHT22;1510;51.072;6.678;2023-04-26T07:44:09;9.30;84.30
3001;DHT22;1510;51.072;6.678;2023-04-26T07:46:36;9.30;86.20
3001;DHT22;1510;51.072;6.678;2023-04-26T07:49:03;9.70;81.30
3001;DHT22;1510;51.072;6.678;2023-04-26T07:51:30;10.20;77.10
3001;DHT22;1510;51.072;6.678;2023-04-26T07:53:57;10.60;77.50
3001;DHT22;1510;51.072;6.678;2023-04-26T07:56:25;11.00;76.00
3001;DHT22;1510;51.072;6.678;2023-04-26T07:58:53;10.70;73.20
3001;DHT22;1510;51.072;6.678;2023-04-26T08:01:20;10.50;74.60
3001;DHT22;1510;51.072;6.678;2023-04-26T08:03:47;10.30;73.90
3001;DHT22;1510;51.072;6.678;2023-04-26T08:06:15;10.10;69.20
3001;DHT22;1510;51.072;6.678;2023-04-26T08:08:41;10.30;71.70
3001;DHT22;1510;51.072;6.678;2023-04-26T08:11:13;10.20;69.30
3001;DHT22;1510;51.072;6.678;2023-04-26T08:13:42;10.70;69.60
3001;DHT22;1510;51.072;6.678;2023-04-26T08:16:09;10.90;69.90
3001;DHT22;1510;51.072;6.678;2023-04-26T08:18:36;11.30;68.00
3001;DHT22;1510;51.072;6.678;2023-04-26T08:21:03;11.80;66.10
3001;DHT22;1510;51.072;6.678;2023-04-26T08:23:32;11.40;66.50
3001;DHT22;1510;51.072;6.678;2023-04-26T08:26:00;11.70;68.50
3001;DHT22;1510;51.072;6.678;2023-04-26T08:28:27;11.40;70.30
3001;DHT22;1510;51.072;6.678;2023-04-26T08:30:56;11.50;69.20
3001;DHT22;1510;51.072;6.678;2023-04-26T08:33:23;11.80;65.10
3001;DHT22;1510;51.072;6.678;2023-04-26T08:35:51;12.00;62.80
3001;DHT22;1510;51.072;6.678;2023-04-26T08:38:18;11.90;61.80
3001;DHT22;1510;51.072;6.678;2023-04-26T08:40:47;11.40;62.20
3001;DHT22;1510;51.072;6.678;2023-04-26T08:43:14;11.50;63.60
3001;DHT22;1510;51.072;6.678;2023-04-26T08:45:44;11.50;62.30
3001;DHT22;1510;51.072;6.678;2023-04-26T08:48:13;10.70;67.50
3001;DHT22;1510;51.072;6.678;2023-04-26T08:50:43;11.10;67.50
3001;DHT22;1510;51.072;6.678;2023-04-26T08:53:13;11.30;65.90
3001;DHT22;1510;51.072;6.678;2023-04-26T08:55:46;11.20;60.90
3001;DHT22;1510;51.072;6.678;2023-04-26T08:58:13;11.20;62.10
3001;DHT22;1510;51.072;6.678;2023-04-26T09:00:42;11.10;62.80
3001;DHT22;1510;51.072;6.678;2023-04-26T09:03:11;11.30;62.20
3001;DHT22;1510;51.072;6.678;2023-04-26T09:05:40;11.50;60.40
3001;DHT22;1510;51.072;6.678;2023-04-26T09:08:14;11.50;55.90
3001;DHT22;1510;51.072;6.678;2023-04-26T09:10:42;11.90;58.30
3001;DHT22;1510;51.072;6.678;2023-04-26T09:13:09;11.90;59.00
3001;DHT22;1510;51.072;6.678;2023-04-26T09:15:37;12.30;58.50
3001;DHT22;1510;51.072;6.678;2023-04-26T09:18:17;12.50;52.70
3001;DHT22;1510;51.072;6.678;2023-04-26T09:21:01;12.60;48.50
3001;DHT22;1510;51.072;6.678;2023-04-26T09:23:28;12.90;46.60
3001;DHT22;1510;51.072;6.678;2023-04-26T09:26:13;12.60;46.30
3001;DHT22;1510;51.072;6.678;2023-04-26T09:28:40;12.40;48.10
3001;DHT22;1510;51.072;6.678;2023-04-26T09:31:09;12.10;45.80
3001;DHT22;1510;51.072;6.678;2023-04-26T09:33:36;12.60;46.30
3001;DHT22;1510;51.072;6.678;2023-04-26T09:36:24;12.90;45.30
3001;DHT22;1510;51.072;6.678;2023-04-26T09:38:51;13.20;46.90
3001;DHT22;1510;51.072;6.678;2023-04-26T09:41:18;13.10;43.00
3001;DHT22;1510;51.072;6.678;2023-04-26T09:43:45;13.20;46.90
3001;DHT22;1510;51.072;6.678;2023-04-26T09:46:21;13.20;46.90
3001;DHT22;1510;51.072;6.678;2023-04-26T09:49:00;12.50;40.30
3001;DHT22;1510;51.072;6.678;2023-04-26T09:51:29;12.20;37.10
3001;DHT22;1510;51.072;6.678;2023-04-26T09:53:56;12.30;42.50
3001;DHT22;1510;51.072;6.678;2023-04-26T09:56:23;12.60;36.30
3001;DHT22;1510;51.072;6.678;2023-04-26T09:58:57;13.30;40.30
3001;DHT22;1510;51.072;6.678;2023-04-26T10:01:26;13.40;31.10
3001;DHT22;1510;51.072;6.678;2023-04-26T10:03:54;14.10;28.80
3001;DHT22;1510;51.072;6.678;2023-04-26T10:06:22;14.30;26.50
3001;DHT22;1510;51.072;6.678;2023-04-26T10:08:50;14.10;24.70
3001;DHT22;1510;51.072;6.678;2023-04-26T10:11:17;14.20;26.30
3001;DHT22;1510;51.072;6.678;2023-04-26T10:13:49;13.80;24.20
3001;DHT22;1510;51.072;6.678;2023-04-26T10:16:16;13.40;26.10
3001;DHT22;1510;51.072;6.678;2023-04-26T10:18:44;13.50;29.60
3001;DHT22;1510;51.072;6.678;2023-04-26T10:21:15;14.20;29.90
3001;DHT22;1510;51.072;6.678;2023-04-26T10:29:03;17.70;21.60
3001;DHT22;1510;51.072;6.678;2023-04-26T10:32:04;17.30;13.60
3001;DHT22;1510;51.072;6.678;2023-04-26T10:34:33;17.10;13.70
3001;DHT22;1510;51.072;6.678;2023-04-26T10:37:08;16.00;12.10
3001;DHT22;1510;51.072;6.678;2023-04-26T10:39:36;15.00;11.80
3001;DHT22;1510;51.072;6.678;2023-04-26T10:42:23;14.80;16.00
3001;DHT22;1510;51.072;6.678;2023-04-26T10:44:53;14.50;15.80
3001;DHT22;1510;51.072;6.678;2023-04-26T10:47:29;15.00;16.80
3001;DHT22;1510;51.072;6.678;2023-04-26T10:50:07;14.10;22.70
3001;DHT22;1510;51.072;6.678;2023-04-26T10:52:36;13.60;25.30
3001;DHT22;1510;51.072;6.678;2023-04-26T10:55:04;12.90;29.10
3001;DHT22;1510;51.072;6.678;2023-04-26T10:57:48;12.40;26.30
3001;DHT22;1510;51.072;6.678;2023-04-26T11:00:40;12.30;24.70
3001;DHT22;1510;51.072;6.678;2023-04-26T11:29:08;15.30;8.80
3001;DHT22;1510;51.072;6.678;2023-04-26T11:31:38;15.40;13.10
3001;DHT22;1510;51.072;6.678;2023-04-26T11:34:05;15.30;12.20
3001;DHT22;1510;51.072;6.678;2023-04-26T11:36:35;15.30;11.80
3001;DHT22;1510;51.072;6.678;2023-04-26T11:39:02;15.10;12.40
3001;DHT22;1510;51.072;6.678;2023-04-26T11:41:30;15.90;7.00
3001;DHT22;1510;51.072;6.678;2023-04-26T11:43:58;17.00;6.00
3001;DHT22;1510;51.072;6.678;2023-04-26T11:46:25;17.00;5.90
3001;DHT22;1510;51.072;6.678;2023-04-26T11:48:52;15.90;13.50
3001;DHT22;1510;51.072;6.678;2023-04-26T11:51:22;16.10;5.80
3001;DHT22;1510;51.072;6.678;2023-04-26T11:53:52;16.30;2.10
3001;DHT22;1510;51.072;6.678;2023-04-26T11:56:20;16.00;4.60
3001;DHT22;1510;51.072;6.678;2023-04-26T11:58:48;15.60;4.30
3001;DHT22;1510;51.072;6.678;2023-04-26T12:01:22;15.10;13.50
3001;DHT22;1510;51.072;6.678;2023-04-26T12:03:51;14.90;11.70
3001;DHT22;1510;51.072;6.678;2023-04-26T12:06:18;14.10;13.70
3001;DHT22;1510;51.072;6.678;2023-04-26T12:08:49;14.30;15.60
3001;DHT22;1510;51.072;6.678;2023-04-26T12:11:18;14.30;11.20
3001;DHT22;1510;51.072;6.678;2023-04-26T12:13:45;14.10;12.40
3001;DHT22;1510;51.072;6.678;2023-04-26T12:16:15;14.10;13.30
3001;DHT22;1510;51.072;6.678;2023-04-26T12:18:49;14.30;15.60
3001;DHT22;1510;51.072;6.678;2023-04-26T12:21:16;14.20;10.50
3001;DHT22;1510;51.072;6.678;2023-04-26T12:23:43;14.50;12.70
3001;DHT22;1510;51.072;6.678;2023-04-26T12:26:13;14.50;11.50
3001;DHT22;1510;51.072;6.678;2023-04-26T12:28:41;14.60;14.40
3001;DHT22;1510;51.072;6.678;2023-04-26T12:31:08;15.30;11.90
3001;DHT22;1510;51.072;6.678;2023-04-26T12:33:35;15.40;13.10
3001;DHT22;1510;51.072;6.678;2023-04-26T12:36:07;15.90;11.90
3001;DHT22;1510;51.072;6.678;2023-04-26T12:38:34;15.90;10.90
3001;DHT22;1510;51.072;6.678;2023-04-26T12:41:01;16.20;7.10
3001;DHT22;1510;51.072;6.678;2023-04-26T12:43:28;16.80;6.10
3001;DHT22;1510;51.072;6.678;2023-04-26T12:45:56;16.90;2.30
3001;DHT22;1510;51.072;6.678;2023-04-26T12:48:23;16.60;6.00
3001;DHT22;1510;51.072;6.678;2023-04-26T12:50:50;16.40;4.40
3001;DHT22;1510;51.072;6.678;2023-04-26T12:53:17;16.20;6.40
3001;DHT22;1510;51.072;6.678;2023-04-26T12:55:44;16.60;6.10
3001;DHT22;1510;51.072;6.678;2023-04-26T12:58:11;17.40;8.40
3001;DHT22;1510;51.072;6.678;2023-04-26T13:00:42;18.70;1.90
3001;DHT22;1510;51.072;6.678;2023-04-26T13:03:10;18.30;1.00
3001;DHT22;1510;51.072;6.678;2023-04-26T13:05:38;18.50;5.40
3001;DHT22;1510;51.072;6.678;2023-04-26T13:08:06;17.90;4.20
3001;DHT22;1510;51.072;6.678;2023-04-26T13:10:32;18.20;3.20
3001;DHT22;1510;51.072;6.678;2023-04-26T13:12:59;17.80;3.00
3001;DHT22;1510;51.072;6.678;2023-04-26T13:15:27;17.20;5.10
3001;DHT22;1510;51.072;6.678;2023-04-26T13:17:55;16.90;1.00
3001;DHT22;1510;51.072;6.678;2023-04-26T13:20:23;17.40;3.10
3001;DHT22;1510;51.072;6.678;2023-04-26T13:22:51;17.30;1.00
3001;DHT22;1510;51.072;6.678;2023-04-26T13:25:18;17.80;5.90
3001;DHT22;1510;51.072;6.678;2023-04-26T13:27:46;18.50;1.00
3001;DHT22;1510;51.072;6.678;2023-04-26T13:30:13;20.10;1.00
3001;DHT22;1510;51.072;6.678;2023-04-26T13:32:40;20.20;1.00
3001;DHT22;1510;51.072;6.678;2023-04-26T13:35:08;20.60;1.00
3001;DHT22;1510;51.072;6.678;2023-04-26T13:37:38;20.20;1.00
3001;DHT22;1510;51.072;6.678;2023-04-26T13:40:09;19.70;1.00
3001;DHT22;1510;51.072;6.678;2023-04-26T13:42:37;17.70;1.00
3001;DHT22;1510;51.072;6.678;2023-04-26T13:45:04;16.70;1.00
3001;DHT22;1510;51.072;6.678;2023-04-26T13:47:34;16.70;1.00
3001;DHT22;1510;51.072;6.678;2023-04-26T13:50:01;17.90;1.00
3001;DHT22;1510;51.072;6.678;2023-04-26T13:52:27;18.20;1.00
3001;DHT22;1510;51.072;6.678;2023-04-26T13:54:56;18.50;1.00
3001;DHT22;1510;51.072;6.678;2023-04-26T13:57:24;19.30;1.00
3001;DHT22;1510;51.072;6.678;2023-04-26T13:59:51;19.50;1.00
3001;DHT22;1510;51.072;6.678;2023-04-26T14:02:18;20.40;1.00
3001;DHT22;1510;51.072;6.678;2023-04-26T14:04:45;21.30;1.00
3001;DHT22;1510;51.072;6.678;2023-04-26T14:07:11;21.30;1.00
3001;DHT22;1510;51.072;6.678;2023-04-26T14:09:38;21.90;1.00
3001;DHT22;1510;51.072;6.678;2023-04-26T14:12:07;21.20;1.00
3001;DHT22;1510;51.072;6.678;2023-04-26T14:14:34;20.00;1.00
3001;DHT22;1510;51.072;6.678;2023-04-26T14:17:01;18.00;1.00
3001;DHT22;1510;51.072;6.678;2023-04-26T14:19:28;16.30;1.00
3001;DHT22;1510;51.072;6.678;2023-04-26T14:21:57;15.90;1.00
3001;DHT22;1510;51.072;6.678;2023-04-26T14:24:24;15.50;1.00
3001;DHT22;1510;51.072;6.678;2023-04-26T14:26:55;15.10;4.50
3001;DHT22;1510;51.072;6.678;2023-04-26T14:29:24;15.90;1.60
3001;DHT22;1510;51.072;6.678;2023-04-26T14:31:53;14.90;1.00
3001;DHT22;1510;51.072;6.678;2023-04-26T14:34:26;14.80;1.00
3001;DHT22;1510;51.072;6.678;2023-04-26T14:36:53;15.80;1.00
3001;DHT22;1510;51.072;6.678;2023-04-26T14:39:21;15.40;1.00
3001;DHT22;1510;51.072;6.678;2023-04-26T14:41:48;15.40;1.00
3001;DHT22;1510;51.072;6.678;2023-04-26T14:44:18;15.20;1.00
3001;DHT22;1510;51.072;6.678;2023-04-26T14:46:49;15.60;1.00
3001;DHT22;1510;51.072;6.678;2023-04-26T14:49:17;16.90;1.00
3001;DHT22;1510;51.072;6.678;2023-04-26T14:51:44;17.10;1.00
3001;DHT22;1510;51.072;6.678;2023-04-26T14:54:11;17.30;1.00
3001;DHT22;1510;51.072;6.678;2023-04-26T14:56:38;16.60;1.00
3001;DHT22;1510;51.072;6.678;2023-04-26T14:59:06;17.30;1.00
3001;DHT22;1510;51.072;6.678;2023-04-26T15:01:33;17.40;1.00
3001;DHT22;1510;51.072;6.678;2023-04-26T15:04:05;17.20;1.00
3001;DHT22;1510;51.072;6.678;2023-04-26T15:06:32;16.20;1.00
3001;DHT22;1510;51.072;6.678;2023-04-26T15:08:59;16.50;1.00
3001;DHT22;1510;51.072;6.678;2023-04-26T15:11:26;16.30;1.00
3001;DHT22;1510;51.072;6.678;2023-04-26T15:13:53;15.30;1.00
3001;DHT22;1510;51.072;6.678;2023-04-26T15:16:20;15.30;1.90
3001;DHT22;1510;51.072;6.678;2023-04-26T15:18:47;16.00;1.00
3001;DHT22;1510;51.072;6.678;2023-04-26T15:21:18;15.70;1.00
3001;DHT22;1510;51.072;6.678;2023-04-26T15:23:47;15.90;1.00
3001;DHT22;1510;51.072;6.678;2023-04-26T15:26:15;16.20;1.00
3001;DHT22;1510;51.072;6.678;2023-04-26T15:28:42;16.80;1.00
3001;DHT22;1510;51.072;6.678;2023-04-26T15:31:09;16.30;1.00
3001;DHT22;1510;51.072;6.678;2023-04-26T15:33:36;15.70;1.00
3001;DHT22;1510;51.072;6.678;2023-04-26T15:36:03;16.30;1.00
3001;DHT22;1510;51.072;6.678;2023-04-26T15:38:33;15.40;1.00
3001;DHT22;1510;51.072;6.678;2023-04-26T15:41:00;15.60;1.00
3001;DHT22;1510;51.072;6.678;2023-04-26T15:43:31;15.10;1.00
3001;DHT22;1510;51.072;6.678;2023-04-26T15:45:58;14.10;1.00
3001;DHT22;1510;51.072;6.678;2023-04-26T15:48:25;13.60;1.00
3001;DHT22;1510;51.072;6.678;2023-04-26T15:50:51;13.50;3.60
3001;DHT22;1510;51.072;6.678;2023-04-26T15:53:21;13.50;1.00
3001;DHT22;1510;51.072;6.678;2023-04-26T15:55:50;13.50;3.10
3001;DHT22;1510;51.072;6.678;2023-04-26T15:58:17;13.70;1.70
3001;DHT22;1510;51.072;6.678;2023-04-26T16:00:44;14.30;1.00
3001;DHT22;1510;51.072;6.678;2023-04-26T16:03:11;15.00;1.00
3001;DHT22;1510;51.072;6.678;2023-04-26T16:05:37;15.50;1.00
3001;DHT22;1510;51.072;6.678;2023-04-26T16:08:04;15.90;1.00
3001;DHT22;1510;51.072;6.678;2023-04-26T16:10:32;16.10;1.00
3001;DHT22;1510;51.072;6.678;2023-04-26T16:13:03;15.60;1.00
3001;DHT22;1510;51.072;6.678;2023-04-26T16:15:29;14.70;1.00
3001;DHT22;1510;51.072;6.678;2023-04-26T16:17:56;14.60;1.00
3001;DHT22;1510;51.072;6.678;2023-04-26T16:20:23;14.80;1.00
3001;DHT22;1510;51.072;6.678;2023-04-26T16:22:50;15.10;1.00
3001;DHT22;1510;51.072;6.678;2023-04-26T16:25:17;14.20;1.00
3001;DHT22;1510;51.072;6.678;2023-04-26T16:27:44;14.00;1.00
3001;DHT22;1510;51.072;6.678;2023-04-26T16:30:13;13.50;2.80
3001;DHT22;1510;51.072;6.678;2023-04-26T16:32:40;13.90;2.70
3001;DHT22;1510;51.072;6.678;2023-04-26T16:35:08;14.40;4.40
3001;DHT22;1510;51.072;6.678;2023-04-26T16:37:37;14.80;1.40
3001;DHT22;1510;51.072;6.678;2023-04-26T16:40:10;15.30;1.20
3001;DHT22;1510;51.072;6.678;2023-04-26T16:42:42;15.80;1.00
3001;DHT22;1510;51.072;6.678;2023-04-26T16:45:10;16.20;1.00
3001;DHT22;1510;51.072;6.678;2023-04-26T16:47:38;16.60;1.00
3001;DHT22;1510;51.072;6.678;2023-04-26T16:50:07;16.50;1.00